Hartford, Connecticut
Traffic Map
Current Weather Conditions
Hartford, Connecticut
Clear
Clear
49°
Feels Like: 49°
Wind Chill: 49° Ceiling: Unl
Heat Index: 49° Visibility: 10mi
Dew Point: 42° Wind: 3mph
Humidity: 77% Direction: 200° (SSW)
Pressure: 29.98in Gusts: 0mph
Raw Report DataKHFD 210353Z 20003KT 10SM CLR 09/06 A2998 RMK AO2 SLP152 T00940056 $
Traffic Incident Summary
Active as of:
Severity:
Category:
InformationThere was an issue retrieving the traffic information for this location. Please try a different location or try again shortly.
Advertisements
Track Severe Weather on mobile